createdAt,value
2018-09-12T00:03:57.983Z,15.03
2018-09-12T00:06:28.236Z,10.03
2018-09-12T00:08:50.385Z,8.77
2018-09-12T00:11:06.591Z,7.70
2018-09-12T00:15:56.922Z,8.77
2018-09-12T00:18:18.955Z,7.97
2018-09-12T00:20:49.099Z,8.17
2018-09-12T00:23:23.471Z,9.13
2018-09-12T00:25:49.327Z,8.57
2018-09-12T00:32:51.908Z,8.27
2018-09-12T00:35:09.555Z,10.10
2018-09-12T00:37:24.273Z,9.60
2018-09-12T00:42:30.493Z,8.17
2018-09-12T00:44:40.324Z,9.67
2018-09-12T00:46:57.484Z,8.00
2018-09-12T00:49:06.671Z,7.97
2018-09-12T00:51:14.222Z,8.27
2018-09-12T00:54:14.444Z,7.53
2018-09-12T00:56:23.687Z,7.40
2018-09-12T00:58:42.252Z,10.73
2018-09-12T01:01:04.558Z,9.10
2018-09-12T01:03:15.900Z,7.63
2018-09-12T01:05:24.256Z,6.83
2018-09-12T01:07:33.136Z,9.17
2018-09-12T01:11:57.373Z,9.00
2018-09-12T01:14:08.722Z,10.03
2018-09-12T01:16:21.715Z,5.07
2018-09-12T01:21:25.436Z,8.70
2018-09-12T01:24:05.453Z,10.83
2018-09-12T01:29:39.181Z,11.90
2018-09-12T01:31:50.470Z,6.10
2018-09-12T01:34:04.296Z,7.03
2018-09-12T01:36:14.024Z,6.73
2018-09-12T01:38:27.062Z,5.97
2018-09-12T01:40:34.487Z,6.43
2018-09-12T01:42:45.315Z,6.30
2018-09-12T01:44:54.256Z,6.37
2018-09-12T01:47:01.118Z,9.23
2018-09-12T01:49:19.474Z,7.43
2018-09-12T01:51:31.073Z,7.47
2018-09-12T01:53:38.205Z,7.23
2018-09-12T01:55:50.055Z,10.13
2018-09-12T01:58:06.387Z,8.27
2018-09-12T02:00:37.899Z,6.03
2018-09-12T02:02:45.257Z,7.37
2018-09-12T02:07:40.122Z,8.33
2018-09-12T02:13:14.930Z,6.17
2018-09-12T02:15:29.937Z,5.67
2018-09-12T02:18:05.017Z,14.73
2018-09-12T02:20:36.041Z,9.23
2018-09-12T02:22:53.272Z,7.63
2018-09-12T02:25:01.836Z,10.33
2018-09-12T02:27:26.135Z,8.27
2018-09-12T02:29:39.527Z,7.80
2018-09-12T02:31:59.141Z,6.27
2018-09-12T02:34:15.215Z,10.30
2018-09-12T02:36:55.095Z,8.57
2018-09-12T02:41:28.229Z,7.77
2018-09-12T02:43:35.979Z,9.30
2018-09-12T02:45:55.921Z,7.93
2018-09-12T02:48:30.454Z,7.27
2018-09-12T02:50:49.595Z,8.87
2018-09-12T02:53:01.767Z,6.43
2018-09-12T02:55:23.483Z,7.87
2018-09-12T02:57:38.125Z,8.57
2018-09-12T03:02:36.219Z,9.00
2018-09-12T03:05:10.142Z,11.60
2018-09-12T03:07:23.926Z,8.93
2018-09-12T03:09:32.890Z,9.37
2018-09-12T03:11:43.945Z,6.57
2018-09-12T03:13:52.922Z,8.40
2018-09-12T03:16:09.085Z,8.63
2018-09-12T03:18:18.228Z,9.63
2018-09-12T03:20:48.175Z,9.47
2018-09-12T03:22:58.884Z,9.67
2018-09-12T03:25:19.367Z,9.90
2018-09-12T03:27:30.329Z,8.80
2018-09-12T03:29:40.274Z,11.93
2018-09-12T03:34:26.293Z,9.00
2018-09-12T03:36:38.499Z,9.03
2018-09-12T03:38:45.861Z,11.70
2018-09-12T03:41:12.702Z,10.67
2018-09-12T03:43:19.591Z,8.93
2018-09-12T03:48:16.038Z,8.13
2018-09-12T03:50:33.550Z,9.93
2018-09-12T03:52:55.386Z,13.07
2018-09-12T03:55:07.240Z,9.60
2018-09-12T03:57:21.704Z,12.23
2018-09-12T03:59:26.958Z,14.73
2018-09-12T04:01:33.229Z,15.80
2018-09-12T04:03:38.454Z,8.73
2018-09-12T04:05:44.491Z,11.13
2018-09-12T04:07:53.603Z,9.63
2018-09-12T04:10:06.093Z,8.43
2018-09-12T04:12:11.287Z,11.03
2018-09-12T04:14:19.085Z,8.40
2018-09-12T04:16:30.502Z,9.10
2018-09-12T04:18:39.312Z,8.53
2018-09-12T04:21:04.925Z,11.23
2018-09-12T04:23:13.805Z,10.50
2018-09-12T04:25:19.528Z,6.83
2018-09-12T04:27:24.972Z,12.63
2018-09-12T04:29:31.569Z,6.47
2018-09-12T04:31:47.208Z,8.00
2018-09-12T04:33:52.442Z,9.57
2018-09-12T04:35:59.048Z,7.73
2018-09-12T04:38:04.254Z,8.97
2018-09-12T04:40:10.021Z,6.70
2018-09-12T04:42:15.056Z,12.03
2018-09-12T04:44:19.043Z,8.97
2018-09-12T04:46:25.933Z,6.97
2018-09-12T04:48:31.749Z,8.10
2018-09-12T04:50:37.110Z,9.47
2018-09-12T04:52:41.684Z,11.30
2018-09-12T04:54:48.109Z,7.73
2018-09-12T04:56:53.169Z,7.07
2018-09-12T04:58:57.257Z,11.47
2018-09-12T05:01:02.820Z,9.50
2018-09-12T05:03:10.643Z,9.03
2018-09-12T05:05:15.875Z,7.43
2018-09-12T05:07:20.578Z,9.40
2018-09-12T05:09:25.992Z,8.43
2018-09-12T05:11:48.952Z,10.73
2018-09-12T05:13:53.964Z,8.03
2018-09-12T05:16:07.805Z,9.80
2018-09-12T05:18:12.888Z,8.90
2018-09-12T05:20:17.963Z,8.17
2018-09-12T05:22:22.135Z,10.83
2018-09-12T05:24:29.479Z,8.83
2018-09-12T05:26:34.828Z,8.30
2018-09-12T05:28:40.412Z,7.83
2018-09-12T05:30:45.643Z,9.40
2018-09-12T05:32:52.452Z,9.37
2018-09-12T05:35:07.308Z,12.13
2018-09-12T05:37:12.197Z,7.80
2018-09-12T05:39:23.853Z,11.63
2018-09-12T05:41:28.059Z,6.87
2018-09-12T05:43:32.540Z,9.77
2018-09-12T05:48:06.724Z,10.83
2018-09-12T05:50:13.934Z,9.73
2018-09-12T05:52:18.013Z,13.07
2018-09-12T05:54:22.605Z,12.37
2018-09-12T05:56:27.298Z,11.93
2018-09-12T05:58:32.217Z,11.40
2018-09-12T06:00:40.670Z,10.73
2018-09-12T06:02:46.085Z,14.30
2018-09-12T06:04:51.974Z,16.90
2018-09-12T06:06:57.263Z,13.87
2018-09-12T06:09:04.753Z,13.43
2018-09-12T06:11:13.184Z,10.20
2018-09-12T06:13:18.653Z,14.40
2018-09-12T06:15:24.584Z,16.83
2018-09-12T06:17:28.619Z,15.60
2018-09-12T06:19:33.259Z,11.20
2018-09-12T06:21:38.587Z,15.67
2018-09-12T06:23:46.500Z,14.27
2018-09-12T06:25:51.529Z,14.57
2018-09-12T06:27:57.863Z,10.33
2018-09-12T06:30:06.680Z,14.07
2018-09-12T06:32:11.304Z,16.53
2018-09-12T06:34:16.569Z,14.43
2018-09-12T06:36:21.486Z,15.57
2018-09-12T06:38:25.547Z,12.87
2018-09-12T06:40:33.465Z,14.67
2018-09-12T06:42:45.843Z,21.93
2018-09-12T06:44:54.678Z,14.47
2018-09-12T06:46:59.372Z,14.57
2018-09-12T06:49:04.754Z,15.70
2018-09-12T06:51:10.649Z,18.33
2018-09-12T06:53:16.881Z,20.60
2018-09-12T06:55:24.205Z,12.50
2018-09-12T06:57:33.368Z,16.60
2018-09-12T06:59:39.324Z,10.47
2018-09-12T07:02:22.476Z,15.07
2018-09-12T07:04:27.395Z,14.00
2018-09-12T07:06:32.536Z,17.77
2018-09-12T07:08:44.812Z,15.70
2018-09-12T07:10:50.840Z,14.00
2018-09-12T07:13:09.694Z,15.20
2018-09-12T07:15:16.405Z,14.23
2018-09-12T07:17:25.595Z,17.37
2018-09-12T07:19:33.196Z,14.83
2018-09-12T07:21:42.669Z,14.07
2018-09-12T07:23:47.819Z,16.47
2018-09-12T07:25:52.560Z,13.23
2018-09-12T07:27:57.382Z,12.07
2018-09-12T07:30:14.762Z,10.47
2018-09-12T07:32:19.942Z,10.53
2018-09-12T07:34:26.123Z,12.50
2018-09-12T07:36:32.034Z,9.37
2018-09-12T07:38:36.643Z,8.20
2018-09-12T07:40:48.573Z,11.53
2018-09-12T07:42:55.136Z,8.60
2018-09-12T07:45:01.400Z,8.53
2018-09-12T07:47:06.044Z,11.47
2018-09-12T07:49:11.091Z,11.43
2018-09-12T07:51:16.022Z,12.47
2018-09-12T07:53:20.516Z,9.53
2018-09-12T07:55:28.028Z,10.47
2018-09-12T07:57:32.738Z,11.27
2018-09-12T07:59:40.930Z,10.83
2018-09-12T08:01:49.485Z,11.83
2018-09-12T08:03:56.405Z,12.63
2018-09-12T08:06:01.552Z,11.63
2018-09-12T08:08:06.193Z,13.00
2018-09-12T08:10:10.112Z,11.77
2018-09-12T08:12:16.278Z,11.67
2018-09-12T08:14:20.574Z,12.87
2018-09-12T08:16:26.837Z,14.23
2018-09-12T08:18:31.213Z,16.50
2018-09-12T08:20:36.711Z,12.50
2018-09-12T08:22:43.397Z,9.27
2018-09-12T08:24:54.990Z,9.07
2018-09-12T08:27:03.078Z,11.85
2018-09-12T08:29:15.337Z,14.87
2018-09-12T08:31:24.584Z,10.70
2018-09-12T08:33:30.431Z,8.37
2018-09-12T08:35:36.698Z,10.10
2018-09-12T08:37:43.651Z,7.80
2018-09-12T08:39:49.424Z,9.75
2018-09-12T08:41:55.132Z,11.07
2018-09-12T08:44:01.029Z,11.70
2018-09-12T08:46:11.507Z,10.35
2018-09-12T08:48:17.072Z,7.87
2018-09-12T08:50:25.497Z,14.13
2018-09-12T08:52:32.167Z,11.07
2018-09-12T08:54:37.396Z,8.70
2018-09-12T08:56:45.349Z,12.58
2018-09-12T08:58:50.022Z,8.30
2018-09-12T09:00:56.068Z,8.03
2018-09-12T09:03:01.305Z,9.55
2018-09-12T09:05:07.524Z,8.13
2018-09-12T09:07:12.923Z,8.90
2018-09-12T09:09:18.413Z,9.73
2018-09-12T09:11:22.442Z,10.98
2018-09-12T09:13:28.712Z,8.98
2018-09-12T09:15:34.333Z,11.30
2018-09-12T09:17:40.577Z,11.10
2018-09-12T09:19:46.111Z,14.60
2018-09-12T09:21:51.413Z,16.53
2018-09-12T09:23:56.429Z,8.60
2018-09-12T09:26:02.724Z,5.37
2018-09-12T09:28:07.444Z,11.12
2018-09-12T09:34:50.295Z,8.65
2018-09-12T09:36:54.973Z,11.55
2018-09-12T09:39:00.158Z,7.33
2018-09-12T09:41:09.464Z,11.70
2018-09-12T09:43:15.658Z,6.90
2018-09-12T09:45:22.443Z,6.17
2018-09-12T09:47:28.512Z,7.00
2018-09-12T09:49:38.259Z,10.95
2018-09-12T09:51:42.443Z,7.55
2018-09-12T09:53:47.957Z,6.08
2018-09-12T09:55:51.953Z,9.43
2018-09-12T09:57:56.682Z,8.48
2018-09-12T10:00:00.752Z,11.33
2018-09-12T10:02:09.856Z,15.65
2018-09-12T10:04:20.474Z,5.47
2018-09-12T10:07:04.840Z,10.48
2018-09-12T10:09:16.343Z,6.85
2018-09-12T10:11:27.279Z,6.67
2018-09-12T10:13:34.368Z,8.18
2018-09-12T10:15:39.232Z,8.75
2018-09-12T10:17:48.580Z,5.65
2018-09-12T10:19:54.016Z,5.80
2018-09-12T10:22:06.377Z,10.63
2018-09-12T10:24:14.402Z,9.53
2018-09-12T10:26:20.143Z,6.53
2018-09-12T10:28:25.715Z,10.45
2018-09-12T10:30:33.953Z,7.62
2018-09-12T10:32:39.060Z,7.37
2018-09-12T10:34:44.904Z,6.67
2018-09-12T10:36:50.741Z,9.63
2018-09-12T10:38:55.319Z,7.58
2018-09-12T10:41:00.057Z,8.68
2018-09-12T10:43:04.509Z,6.25
2018-09-12T10:45:09.876Z,10.65
2018-09-12T10:47:18.013Z,8.83
2018-09-12T10:49:22.307Z,6.83
2018-09-12T10:51:27.805Z,5.37
2018-09-12T10:53:33.532Z,8.53
2018-09-12T10:55:38.034Z,9.00
2018-09-12T10:57:43.627Z,8.20
2018-09-12T10:59:51.262Z,5.83
2018-09-12T11:01:56.452Z,10.08
2018-09-12T11:04:02.540Z,9.90
2018-09-12T11:06:08.266Z,9.60
2018-09-12T11:08:13.367Z,6.50
2018-09-12T11:10:20.151Z,8.95
2018-09-12T11:12:29.499Z,7.28
2018-09-12T11:14:50.568Z,8.58
2018-09-12T11:16:57.512Z,7.10
2018-09-12T11:19:06.909Z,7.47
2018-09-12T11:21:13.499Z,10.55
2018-09-12T11:23:21.305Z,6.45
2018-09-12T11:25:25.272Z,10.63
2018-09-12T11:27:33.616Z,6.05
2018-09-12T11:29:38.797Z,9.98
2018-09-12T11:31:43.772Z,5.75
2018-09-12T11:33:49.598Z,13.48
2018-09-12T11:35:59.165Z,6.58
2018-09-12T11:38:03.186Z,10.40
2018-09-12T11:40:08.760Z,6.78
2018-09-12T11:42:13.300Z,5.78
2018-09-12T11:44:24.302Z,8.28
2018-09-12T11:46:30.092Z,5.35
2018-09-12T11:48:34.960Z,8.48
2018-09-12T11:50:39.643Z,4.92
2018-09-12T11:52:44.166Z,6.90
2018-09-12T11:54:50.604Z,5.90
2018-09-12T11:56:54.755Z,7.47
2018-09-12T11:58:59.438Z,8.13
2018-09-12T12:01:04.401Z,8.73
2018-09-12T12:03:09.926Z,8.83
2018-09-12T12:05:15.623Z,9.00
2018-09-12T12:07:22.284Z,8.23
2018-09-12T12:09:28.199Z,8.55
2018-09-12T12:11:32.471Z,6.45
2018-09-12T12:13:39.456Z,4.47
2018-09-12T12:15:55.520Z,7.65
2018-09-12T12:18:00.610Z,6.92
2018-09-12T12:20:06.070Z,5.25
2018-09-12T12:22:13.084Z,11.53
2018-09-12T12:24:19.045Z,5.30
2018-09-12T12:26:25.089Z,5.28
2018-09-12T12:28:29.871Z,4.78
2018-09-12T12:30:39.834Z,6.47
2018-09-12T12:32:45.472Z,6.05
2018-09-12T12:34:57.622Z,9.53
2018-09-12T12:37:05.263Z,5.10
2018-09-12T12:39:14.025Z,6.12
2018-09-12T12:41:20.420Z,8.50
2018-09-12T12:43:29.562Z,6.90
2018-09-12T12:45:39.061Z,5.08
2018-09-12T12:47:43.252Z,4.45
2018-09-12T12:49:52.514Z,4.30
2018-09-12T12:51:57.132Z,3.30
2018-09-12T12:54:04.750Z,7.55
2018-09-12T12:56:10.120Z,5.80
2018-09-12T12:58:17.983Z,4.60
2018-09-12T13:00:25.471Z,7.45
2018-09-12T13:02:29.433Z,4.67
2018-09-12T13:04:34.829Z,6.03
2018-09-12T13:06:40.431Z,5.97
2018-09-12T13:08:54.910Z,5.35
2018-09-12T13:11:11.494Z,3.77
2018-09-12T13:13:24.565Z,5.03
2018-09-12T13:15:38.699Z,7.08
2018-09-12T13:17:53.180Z,5.30
2018-09-12T13:20:05.465Z,4.28
2018-09-12T13:22:21.651Z,6.78
2018-09-12T13:24:34.165Z,5.55
2018-09-12T13:26:54.519Z,5.85
2018-09-12T13:29:12.992Z,7.50
2018-09-12T13:31:26.726Z,4.67
2018-09-12T13:33:33.305Z,6.30
2018-09-12T13:35:54.823Z,6.25
2018-09-12T13:38:01.611Z,7.55
2018-09-12T13:40:13.201Z,4.12
2018-09-12T13:42:35.601Z,4.42
2018-09-12T13:44:52.855Z,4.53
2018-09-12T13:47:12.512Z,6.67
2018-09-12T13:49:22.292Z,9.28
2018-09-12T13:51:33.163Z,5.35
2018-09-12T13:53:51.541Z,6.47
2018-09-12T13:55:56.453Z,4.17
2018-09-12T13:58:07.294Z,4.90
2018-09-12T14:00:24.762Z,6.62
2018-09-12T14:02:38.390Z,8.58
2018-09-12T14:04:48.178Z,3.92
2018-09-12T14:06:55.826Z,13.75
2018-09-12T14:09:17.649Z,6.40
2018-09-12T14:11:32.029Z,5.62
2018-09-12T14:13:47.985Z,4.47
2018-09-12T14:18:12.645Z,7.53
2018-09-12T14:20:28.616Z,6.42
2018-09-12T14:22:52.350Z,9.20
2018-09-12T14:25:09.306Z,4.05
2018-09-12T14:29:41.440Z,4.97
2018-09-12T14:31:49.442Z,4.00
2018-09-12T14:33:57.409Z,2.80
2018-09-12T14:36:10.758Z,3.90
2018-09-12T14:38:19.535Z,6.42
2018-09-12T14:40:26.585Z,4.15
2018-09-12T14:42:40.511Z,3.60
2018-09-12T14:44:51.785Z,3.62
2018-09-12T14:46:57.107Z,7.40
2018-09-12T14:49:01.827Z,5.50
2018-09-12T14:51:13.669Z,3.42
2018-09-12T14:53:21.215Z,3.87
2018-09-12T14:55:30.618Z,3.50
2018-09-12T14:57:40.244Z,2.52
2018-09-12T14:59:57.622Z,2.62
2018-09-12T15:02:05.054Z,2.92
2018-09-12T15:04:12.117Z,5.33
2018-09-12T15:06:16.720Z,2.92
2018-09-12T15:08:24.424Z,3.92
2018-09-12T15:10:33.959Z,3.08
2018-09-12T15:12:44.801Z,2.70
2018-09-12T15:14:52.528Z,4.60
2018-09-12T15:17:10.901Z,2.85
2018-09-12T15:19:22.308Z,2.17
2018-09-12T15:21:26.384Z,4.10
2018-09-12T15:23:31.798Z,2.52
2018-09-12T15:25:38.210Z,3.08
2018-09-12T15:29:59.562Z,3.15
2018-09-12T15:32:17.396Z,5.28
2018-09-12T15:34:29.280Z,1.77
2018-09-12T15:36:44.832Z,2.77
2018-09-12T15:38:57.551Z,6.95
2018-09-12T15:41:08.423Z,2.17
2018-09-12T15:43:21.901Z,4.08
2018-09-12T15:45:50.287Z,4.33
2018-09-12T15:48:11.354Z,3.37
2018-09-12T15:50:17.936Z,3.98
2018-09-12T15:52:30.232Z,2.90
2018-09-12T15:54:39.763Z,2.90
2018-09-12T15:56:50.936Z,3.27
2018-09-12T15:59:07.281Z,4.35
2018-09-12T16:01:37.977Z,4.40
2018-09-12T16:03:54.007Z,4.00
2018-09-12T16:05:58.936Z,6.72
2018-09-12T16:08:40.275Z,3.77
2018-09-12T16:11:32.929Z,4.08
2018-09-12T16:13:47.057Z,4.53
2018-09-12T16:16:17.248Z,5.47
2018-09-12T16:18:30.261Z,6.62
2018-09-12T16:20:40.755Z,3.60
2018-09-12T16:25:30.376Z,3.58
2018-09-12T16:27:41.737Z,5.37
2018-09-12T16:29:55.839Z,3.77
2018-09-12T16:32:15.125Z,3.47
2018-09-12T16:34:32.099Z,4.62
2018-09-12T16:36:42.227Z,7.47
2018-09-12T16:39:06.720Z,2.60
2018-09-12T16:41:24.543Z,3.25
2018-09-12T16:43:32.733Z,2.95
2018-09-12T16:46:12.300Z,4.47
2018-09-12T16:48:28.368Z,5.17
2018-09-12T16:50:41.052Z,7.28
2018-09-12T16:52:54.847Z,6.30
2018-09-12T16:55:15.271Z,3.45
2018-09-12T16:57:30.010Z,4.78
2018-09-12T16:59:43.929Z,4.55
2018-09-12T17:02:01.403Z,4.72
2018-09-12T17:04:06.303Z,2.55
2018-09-12T17:06:16.235Z,5.12
2018-09-12T17:08:22.022Z,4.37
2018-09-12T17:10:33.417Z,4.80
2018-09-12T17:12:43.104Z,4.20
2018-09-12T17:14:53.144Z,3.55
2018-09-12T17:17:18.104Z,3.83
2018-09-12T17:19:27.254Z,5.83
2018-09-12T17:21:46.577Z,3.92
2018-09-12T17:23:56.542Z,4.47
2018-09-12T17:26:02.846Z,6.17
2018-09-12T17:28:12.350Z,4.58
2018-09-12T17:30:32.570Z,6.17
2018-09-12T17:32:40.094Z,3.62
2018-09-12T17:35:00.744Z,8.68
2018-09-12T17:37:14.268Z,6.00
2018-09-12T17:39:40.997Z,11.88
2018-09-12T17:41:53.090Z,8.30
2018-09-12T17:44:09.385Z,5.15
2018-09-12T17:46:31.376Z,3.92
2018-09-12T17:48:48.302Z,5.00
2018-09-12T17:51:03.348Z,6.70
2018-09-12T17:53:15.176Z,4.92
2018-09-12T17:55:30.655Z,5.60
2018-09-12T17:57:41.689Z,10.13
2018-09-12T17:59:49.602Z,5.53
2018-09-12T18:01:55.184Z,6.10
2018-09-12T18:04:05.906Z,5.75
2018-09-12T18:06:15.162Z,7.55
2018-09-12T18:08:35.808Z,6.37
2018-09-12T18:10:41.634Z,7.03
2018-09-12T18:12:51.790Z,11.33
2018-09-12T18:14:57.352Z,6.90
2018-09-12T18:19:59.299Z,9.17
2018-09-12T18:22:08.550Z,7.70
2018-09-12T18:24:16.539Z,5.07
2018-09-12T18:26:37.889Z,8.05
2018-09-12T18:28:49.332Z,6.03
2018-09-12T18:31:07.553Z,7.13
2018-09-12T18:33:44.402Z,6.80
2018-09-12T18:36:00.537Z,4.37
2018-09-12T18:41:31.088Z,6.00
2018-09-12T18:43:50.489Z,5.23
2018-09-12T18:46:12.406Z,7.77
2018-09-12T18:48:32.063Z,5.70
2018-09-12T18:53:31.279Z,5.80
2018-09-12T18:55:47.094Z,5.43
2018-09-12T18:58:12.405Z,5.40
2018-09-12T19:00:32.341Z,6.10
2018-09-12T19:02:47.892Z,4.70
2018-09-12T19:05:06.886Z,4.43
2018-09-12T19:07:17.547Z,6.78
2018-09-12T19:09:30.465Z,5.40
2018-09-12T19:11:39.231Z,5.97
2018-09-12T19:13:49.645Z,4.47
2018-09-12T19:15:57.981Z,5.17
2018-09-12T19:18:16.347Z,7.67
2018-09-12T19:20:26.482Z,8.03
2018-09-12T19:22:32.680Z,4.07
2018-09-12T19:24:53.651Z,6.27
2018-09-12T19:27:16.123Z,5.93
2018-09-12T19:29:33.908Z,4.90
2018-09-12T19:31:54.428Z,5.03
2018-09-12T19:34:12.048Z,5.63
2018-09-12T19:37:01.917Z,4.73
2018-09-12T19:39:56.896Z,4.87
2018-09-12T19:42:02.672Z,6.27
2018-09-12T19:44:07.884Z,7.40
2018-09-12T19:46:13.679Z,7.40
2018-09-12T19:48:17.906Z,5.27
2018-09-12T19:50:22.979Z,6.23
2018-09-12T19:52:31.113Z,7.13
2018-09-12T19:54:40.583Z,5.33
2018-09-12T19:56:51.703Z,5.50
2018-09-12T19:58:59.747Z,8.33
2018-09-12T20:01:05.160Z,7.30
2018-09-12T20:03:12.114Z,6.50
2018-09-12T20:05:19.978Z,4.53
2018-09-12T20:07:31.295Z,4.27
2018-09-12T20:09:35.338Z,5.50
2018-09-12T20:11:40.677Z,7.00
2018-09-12T20:13:46.303Z,6.70
2018-09-12T20:15:54.432Z,7.00
2018-09-12T20:18:00.082Z,6.23
2018-09-12T20:20:07.647Z,6.50
2018-09-12T20:22:12.667Z,7.30
2018-09-12T20:24:17.233Z,7.53
2018-09-12T20:26:27.208Z,11.43
2018-09-12T20:28:38.333Z,11.97
2018-09-12T20:30:44.101Z,9.93
2018-09-12T20:32:52.136Z,9.23
2018-09-12T20:34:57.483Z,7.83
2018-09-12T20:37:06.451Z,8.30
2018-09-12T20:39:13.710Z,9.23
2018-09-12T20:41:18.952Z,12.83
2018-09-12T20:43:23.606Z,10.10
2018-09-12T20:45:30.437Z,10.07
2018-09-12T20:47:37.682Z,11.23
2018-09-12T20:49:43.977Z,14.03
2018-09-12T20:51:48.093Z,11.87
2018-09-12T20:53:58.637Z,11.80
2018-09-12T20:56:07.387Z,14.73
2018-09-12T20:58:11.687Z,11.60
2018-09-12T21:00:16.237Z,11.50
2018-09-12T21:02:21.783Z,14.17
2018-09-12T21:04:27.297Z,12.53
2018-09-12T21:06:36.700Z,13.77
2018-09-12T21:08:40.934Z,15.07
2018-09-12T21:10:47.688Z,15.17
2018-09-12T21:12:54.213Z,13.23
2018-09-12T21:14:58.254Z,14.27
2018-09-12T21:17:03.773Z,15.03
2018-09-12T21:19:08.340Z,17.00
2018-09-12T21:21:12.328Z,13.60
2018-09-12T21:23:22.063Z,13.60
2018-09-12T21:25:27.715Z,13.97
2018-09-12T21:27:31.911Z,14.03
2018-09-12T21:29:36.938Z,14.17
2018-09-12T21:31:41.016Z,15.10
2018-09-12T21:33:45.107Z,13.90
2018-09-12T21:35:49.656Z,14.80
2018-09-12T21:37:56.677Z,14.50
2018-09-12T21:40:00.648Z,14.10
2018-09-12T21:42:07.318Z,14.40
2018-09-12T21:44:11.423Z,14.63
2018-09-12T21:46:19.548Z,15.53
2018-09-12T21:48:23.526Z,15.03
2018-09-12T21:50:27.799Z,14.73
2018-09-12T21:52:31.856Z,14.77
2018-09-12T21:54:38.462Z,14.63
2018-09-12T21:56:45.263Z,18.30
2018-09-12T21:58:50.404Z,15.93
2018-09-12T22:00:54.747Z,15.40
2018-09-12T22:02:59.626Z,16.17
2018-09-12T22:05:04.237Z,18.03
2018-09-12T22:07:10.365Z,17.53
2018-09-12T22:09:15.096Z,16.00
2018-09-12T22:11:19.691Z,17.83
2018-09-12T22:13:24.699Z,18.00
2018-09-12T22:15:28.755Z,21.33
2018-09-12T22:17:33.451Z,17.80
2018-09-12T22:19:38.788Z,18.20
2018-09-12T22:21:42.757Z,18.67
2018-09-12T22:23:47.349Z,21.03
2018-09-12T22:25:51.628Z,22.20
2018-09-12T22:27:56.299Z,19.63
2018-09-12T22:30:00.890Z,22.73
2018-09-12T22:32:07.128Z,20.07
2018-09-12T22:34:11.091Z,21.83
2018-09-12T22:36:15.287Z,18.17
2018-09-12T22:38:20.616Z,20.03
2018-09-12T22:40:25.267Z,24.80
2018-09-12T22:42:29.330Z,20.50
2018-09-12T22:44:33.578Z,25.10
2018-09-12T22:46:37.571Z,19.23
2018-09-12T22:48:41.588Z,24.43
2018-09-12T22:50:47.075Z,18.60
2018-09-12T22:52:54.643Z,21.30
2018-09-12T22:54:58.890Z,20.83
2018-09-12T22:57:04.264Z,21.63
2018-09-12T22:59:10.521Z,20.53
2018-09-12T23:01:17.046Z,24.30
2018-09-12T23:03:21.859Z,22.03
2018-09-12T23:05:27.799Z,20.70
2018-09-12T23:07:32.351Z,20.30
2018-09-12T23:09:36.727Z,20.20
2018-09-12T23:11:40.724Z,19.73
2018-09-12T23:13:46.372Z,22.57
2018-09-12T23:15:52.903Z,18.93
2018-09-12T23:17:57.315Z,19.13
2018-09-12T23:20:02.883Z,17.97
2018-09-12T23:22:09.201Z,20.87
2018-09-12T23:24:15.447Z,19.13
2018-09-12T23:26:20.420Z,18.83
2018-09-12T23:28:25.164Z,20.20
2018-09-12T23:30:29.211Z,18.30
2018-09-12T23:32:37.666Z,18.57
2018-09-12T23:34:42.028Z,18.00
2018-09-12T23:36:45.979Z,15.83
2018-09-12T23:38:50.051Z,18.70
2018-09-12T23:40:55.379Z,18.67
2018-09-12T23:42:59.899Z,18.33
2018-09-12T23:45:04.531Z,15.57
2018-09-12T23:47:09.813Z,18.37
2018-09-12T23:49:13.838Z,16.37
2018-09-12T23:51:18.048Z,17.33
2018-09-12T23:53:22.963Z,16.80
2018-09-12T23:55:29.054Z,18.37
2018-09-12T23:57:33.000Z,16.27
2018-09-12T23:59:37.325Z,15.60
